createdAt,value
2019-02-07T00:00:50.944Z,99.90
2019-02-07T00:03:24.539Z,99.90
2019-02-07T00:05:58.031Z,99.90
2019-02-07T00:08:31.864Z,99.90
2019-02-07T00:11:05.797Z,99.90
2019-02-07T00:13:39.567Z,99.90
2019-02-07T00:16:13.089Z,99.90
2019-02-07T00:18:47.096Z,99.90
2019-02-07T00:21:19.860Z,99.90
2019-02-07T00:23:52.570Z,99.90
2019-02-07T00:26:25.476Z,99.90
2019-02-07T00:28:59.518Z,99.90
2019-02-07T00:31:32.570Z,99.90
2019-02-07T00:34:06.192Z,99.90
2019-02-07T00:36:39.069Z,99.90
2019-02-07T00:39:12.544Z,99.90
2019-02-07T00:41:45.369Z,99.90
2019-02-07T00:44:18.393Z,99.90
2019-02-07T00:46:51.148Z,99.90
2019-02-07T00:49:24.132Z,99.90
2019-02-07T00:51:57.152Z,99.90
2019-02-07T00:54:30.126Z,99.90
2019-02-07T00:57:02.890Z,99.90
2019-02-07T00:59:35.504Z,99.90
2019-02-07T01:02:08.396Z,99.90
2019-02-07T01:04:41.319Z,99.90
2019-02-07T01:07:14.178Z,99.90
2019-02-07T01:09:47.451Z,99.90
2019-02-07T01:12:21.760Z,99.90
2019-02-07T01:15:01.627Z,99.90
2019-02-07T01:17:29.741Z,99.90
2019-02-07T01:20:02.655Z,99.90
2019-02-07T01:22:35.510Z,99.90
2019-02-07T01:25:11.758Z,99.90
2019-02-07T01:27:45.994Z,99.90
2019-02-07T01:30:21.568Z,99.90
2019-02-07T01:32:54.926Z,99.90
2019-02-07T01:35:27.905Z,99.90
2019-02-07T01:38:00.667Z,99.90
2019-02-07T01:40:33.668Z,99.90
2019-02-07T01:43:06.572Z,99.90
2019-02-07T01:45:39.464Z,99.90
2019-02-07T01:48:12.497Z,99.90
2019-02-07T01:50:45.434Z,99.90
2019-02-07T01:53:18.112Z,99.90
2019-02-07T01:55:51.064Z,99.90
2019-02-07T01:58:23.903Z,99.90
2019-02-07T02:00:57.405Z,99.90
2019-02-07T02:03:30.364Z,99.90
2019-02-07T02:06:03.582Z,99.90
2019-02-07T02:08:36.421Z,99.90
2019-02-07T02:11:09.649Z,99.90
2019-02-07T02:13:43.124Z,99.90
2019-02-07T02:16:16.306Z,99.90
2019-02-07T02:18:49.345Z,99.90
2019-02-07T02:21:22.279Z,99.90
2019-02-07T02:23:55.580Z,99.90
2019-02-07T02:26:28.542Z,99.90
2019-02-07T02:29:01.328Z,99.90
2019-02-07T02:31:34.093Z,99.90
2019-02-07T02:34:07.191Z,99.90
2019-02-07T02:36:40.270Z,99.90
2019-02-07T02:39:15.316Z,99.90
2019-02-07T02:41:48.388Z,99.90
2019-02-07T02:44:21.371Z,99.90
2019-02-07T02:46:54.843Z,99.90
2019-02-07T02:49:27.900Z,99.90
2019-02-07T02:52:00.816Z,99.90
2019-02-07T02:54:43.938Z,99.90
2019-02-07T02:57:17.176Z,99.90
2019-02-07T02:59:50.064Z,99.90
2019-02-07T03:02:44.895Z,99.90
2019-02-07T03:05:31.737Z,99.90
2019-02-07T03:08:26.696Z,99.90
2019-02-07T03:11:17.607Z,99.90
2019-02-07T03:14:21.703Z,99.90
2019-02-07T03:17:16.262Z,99.90
2019-02-07T03:20:02.868Z,99.90
2019-02-07T03:23:12.788Z,99.90
2019-02-07T03:26:24.046Z,99.90
2019-02-07T03:29:27.917Z,99.90
2019-02-07T03:32:11.040Z,99.90
2019-02-07T03:34:57.044Z,99.90
2019-02-07T03:37:54.717Z,99.90
2019-02-07T03:41:01.733Z,99.90
2019-02-07T03:43:51.844Z,99.90
2019-02-07T03:46:46.405Z,99.90
2019-02-07T03:49:43.767Z,99.90
2019-02-07T03:52:35.471Z,99.90
2019-02-07T03:55:37.407Z,99.90
2019-02-07T03:58:29.037Z,99.90
2019-02-07T04:01:19.504Z,99.90
2019-02-07T04:04:11.527Z,99.90
2019-02-07T04:06:56.907Z,99.90
2019-02-07T04:09:48.449Z,99.90
2019-02-07T04:12:43.408Z,99.90
2019-02-07T04:15:49.044Z,99.90
2019-02-07T04:18:33.713Z,99.90
2019-02-07T04:21:21.256Z,99.90
2019-02-07T04:24:06.607Z,99.90
2019-02-07T04:27:01.401Z,99.90
2019-02-07T04:29:56.473Z,99.90
2019-02-07T04:32:57.928Z,99.90
2019-02-07T04:36:01.923Z,99.90
2019-02-07T04:39:02.945Z,99.90
2019-02-07T04:41:54.181Z,99.90
2019-02-07T04:45:04.573Z,99.90
2019-02-07T04:47:55.473Z,99.90
2019-02-07T04:50:59.451Z,99.90
2019-02-07T04:53:51.484Z,99.90
2019-02-07T04:56:46.071Z,99.90
2019-02-07T04:59:26.634Z,99.90
2019-02-07T05:02:24.375Z,99.90
2019-02-07T05:05:28.388Z,99.90
2019-02-07T05:08:18.770Z,99.90
2019-02-07T05:11:13.392Z,99.90
2019-02-07T05:14:08.647Z,99.90
2019-02-07T05:17:03.538Z,99.90
2019-02-07T05:19:58.797Z,99.90
2019-02-07T05:22:49.622Z,99.90
2019-02-07T05:25:41.901Z,99.90
2019-02-07T05:28:33.820Z,99.90
2019-02-07T05:31:32.092Z,99.90
2019-02-07T05:34:14.838Z,99.90
2019-02-07T05:37:15.410Z,99.90
2019-02-07T05:40:05.986Z,99.90
2019-02-07T05:42:56.973Z,99.90
2019-02-07T05:46:00.759Z,99.90
2019-02-07T05:48:51.685Z,99.90
2019-02-07T05:51:49.431Z,99.90
2019-02-07T05:54:44.282Z,99.90
2019-02-07T05:57:28.020Z,99.90
2019-02-07T06:00:33.127Z,99.90
2019-02-07T06:03:35.948Z,99.90
2019-02-07T06:06:26.548Z,99.90
2019-02-07T06:09:18.326Z,99.90
2019-02-07T06:12:08.907Z,99.90
2019-02-07T06:14:59.997Z,99.90
2019-02-07T06:17:50.566Z,99.90
2019-02-07T06:20:45.351Z,99.90
2019-02-07T06:23:30.484Z,99.90
2019-02-07T06:26:18.759Z,99.90
2019-02-07T06:29:00.693Z,99.90
2019-02-07T06:32:01.897Z,99.90
2019-02-07T06:34:52.476Z,99.90
2019-02-07T06:37:42.796Z,99.90
2019-02-07T06:40:53.143Z,99.90
2019-02-07T06:43:36.389Z,99.90
2019-02-07T06:46:34.798Z,99.90
2019-02-07T06:49:23.180Z,99.80
2019-02-07T06:52:17.919Z,99.90
2019-02-07T06:55:10.191Z,99.90
2019-02-07T06:58:04.905Z,99.90
2019-02-07T07:01:03.187Z,99.90
2019-02-07T07:04:04.225Z,99.90
2019-02-07T07:07:11.173Z,99.90
2019-02-07T07:10:04.256Z,99.90
2019-02-07T07:12:55.202Z,99.90
2019-02-07T07:15:43.521Z,99.90
2019-02-07T07:18:38.466Z,99.90
2019-02-07T07:21:45.824Z,99.90
2019-02-07T07:24:49.812Z,99.90
2019-02-07T07:27:40.516Z,99.90
2019-02-07T07:30:33.394Z,99.90
2019-02-07T07:33:32.546Z,99.90
2019-02-07T07:36:23.738Z,99.90
2019-02-07T07:39:09.565Z,99.70
2019-02-07T07:42:07.545Z,97.80
2019-02-07T07:45:01.099Z,96.60
2019-02-07T07:48:05.552Z,97.30
2019-02-07T07:50:57.416Z,98.00
2019-02-07T07:53:48.657Z,99.50
2019-02-07T07:56:39.300Z,99.70
2019-02-07T07:59:33.916Z,99.00
2019-02-07T08:02:24.599Z,98.30
2019-02-07T08:05:23.477Z,98.30
2019-02-07T08:08:24.682Z,99.40
2019-02-07T08:11:19.162Z,99.90
2019-02-07T08:14:08.129Z,99.90
2019-02-07T08:16:59.149Z,99.90
2019-02-07T08:19:53.035Z,99.90
2019-02-07T08:22:43.583Z,99.90
2019-02-07T08:25:34.370Z,99.90
2019-02-07T08:28:30.304Z,99.90
2019-02-07T08:31:22.429Z,99.90
2019-02-07T08:34:26.628Z,99.90
2019-02-07T08:37:14.433Z,99.90
2019-02-07T08:40:10.748Z,99.90
2019-02-07T08:43:08.716Z,99.90
2019-02-07T08:45:50.505Z,99.90
2019-02-07T08:48:43.458Z,99.90
2019-02-07T08:51:35.481Z,99.90
2019-02-07T08:54:43.660Z,99.90
2019-02-07T08:57:28.518Z,99.90
2019-02-07T09:00:29.558Z,99.90
2019-02-07T09:03:12.672Z,99.90
2019-02-07T09:06:17.354Z,99.90
2019-02-07T09:09:18.314Z,99.90
2019-02-07T09:12:19.273Z,99.20
2019-02-07T09:15:17.500Z,99.80
2019-02-07T09:18:18.536Z,96.30
2019-02-07T09:21:10.243Z,94.60
2019-02-07T09:24:05.447Z,92.90
2019-02-07T09:27:00.314Z,92.40
2019-02-07T09:29:53.882Z,88.00
2019-02-07T09:33:04.008Z,85.10
2019-02-07T09:35:49.182Z,86.60
2019-02-07T09:38:40.999Z,85.10
2019-02-07T09:41:31.487Z,86.40
2019-02-07T09:44:13.679Z,84.50
2019-02-07T09:47:04.062Z,85.90
2019-02-07T09:49:46.689Z,83.50
2019-02-07T09:52:28.901Z,84.10
2019-02-07T09:55:24.311Z,86.10
2019-02-07T09:58:08.367Z,90.90
2019-02-07T10:01:00.597Z,91.30
2019-02-07T10:03:52.311Z,92.80
2019-02-07T10:06:33.887Z,92.60
2019-02-07T10:09:35.100Z,93.80
2019-02-07T10:12:33.414Z,93.40
2019-02-07T10:15:29.451Z,94.40
2019-02-07T10:18:33.609Z,95.10
2019-02-07T10:21:24.637Z,93.30
2019-02-07T10:24:14.910Z,94.10
2019-02-07T10:27:10.771Z,94.10
2019-02-07T10:30:07.185Z,93.70
2019-02-07T10:32:58.098Z,94.10
2019-02-07T10:36:06.068Z,93.90
2019-02-07T10:38:50.643Z,95.30
2019-02-07T10:41:54.638Z,95.00
2019-02-07T10:44:45.619Z,96.60
2019-02-07T10:47:44.128Z,97.10
2019-02-07T10:50:34.595Z,97.40
2019-02-07T10:53:27.965Z,97.00
2019-02-07T10:56:35.308Z,97.30
2019-02-07T10:59:30.150Z,95.50
2019-02-07T11:02:31.086Z,97.10
2019-02-07T11:05:21.494Z,96.60
2019-02-07T11:08:12.233Z,96.00
2019-02-07T11:11:09.138Z,95.70
2019-02-07T11:14:03.704Z,97.70
2019-02-07T11:17:03.847Z,98.10
2019-02-07T11:19:57.394Z,97.00
2019-02-07T11:22:40.115Z,97.20
2019-02-07T11:25:35.592Z,97.30
2019-02-07T11:28:20.964Z,97.80
2019-02-07T11:31:24.989Z,98.70
2019-02-07T11:34:15.661Z,98.40
2019-02-07T11:37:10.944Z,99.00
2019-02-07T11:40:10.234Z,98.50
2019-02-07T11:43:05.422Z,98.50
2019-02-07T11:46:00.303Z,98.80
2019-02-07T11:48:52.396Z,98.70
2019-02-07T11:51:53.249Z,98.60
2019-02-07T11:54:45.485Z,97.80
2019-02-07T11:57:46.809Z,96.30
2019-02-07T12:00:39.155Z,98.10
2019-02-07T12:03:23.134Z,98.10
2019-02-07T12:06:13.848Z,96.50
2019-02-07T12:09:15.441Z,98.30
2019-02-07T12:12:13.605Z,96.30
2019-02-07T12:15:05.728Z,96.70
2019-02-07T12:17:59.068Z,96.50
2019-02-07T12:20:50.882Z,98.90
2019-02-07T12:23:52.333Z,97.30
2019-02-07T12:26:43.321Z,97.00
2019-02-07T12:29:38.424Z,96.20
2019-02-07T12:32:54.989Z,96.30
2019-02-07T12:35:57.257Z,96.10
2019-02-07T12:38:53.728Z,95.60
2019-02-07T12:41:44.479Z,95.60
2019-02-07T12:44:35.188Z,97.50
2019-02-07T12:47:27.390Z,96.60
2019-02-07T12:50:19.625Z,96.50
2019-02-07T12:53:10.198Z,95.30
2019-02-07T12:55:55.812Z,95.70
2019-02-07T12:59:07.878Z,95.20
2019-02-07T13:01:58.942Z,95.70
2019-02-07T13:04:49.691Z,95.20
2019-02-07T13:07:40.995Z,97.10
2019-02-07T13:10:35.129Z,96.70
2019-02-07T13:13:23.340Z,97.50
2019-02-07T13:16:24.297Z,96.10
2019-02-07T13:19:15.121Z,95.70
2019-02-07T13:22:19.190Z,96.70
2019-02-07T13:25:06.252Z,96.30
2019-02-07T13:27:58.468Z,96.10
2019-02-07T13:30:51.460Z,96.50
2019-02-07T13:33:42.973Z,97.90
2019-02-07T13:36:38.085Z,96.90
2019-02-07T13:39:22.429Z,97.10
2019-02-07T13:42:15.889Z,96.80
2019-02-07T13:45:06.697Z,97.20
2019-02-07T13:47:57.683Z,96.40
2019-02-07T13:50:52.567Z,98.00
2019-02-07T13:53:46.271Z,97.00
2019-02-07T13:56:36.998Z,97.60
2019-02-07T13:59:19.437Z,97.80
2019-02-07T14:02:30.765Z,96.50
2019-02-07T14:05:35.402Z,97.50
2019-02-07T14:08:38.110Z,97.80
2019-02-07T14:11:25.102Z,96.50
2019-02-07T14:14:35.829Z,96.80
2019-02-07T14:17:20.382Z,96.90
2019-02-07T14:20:11.587Z,96.30
2019-02-07T14:23:16.016Z,97.20
2019-02-07T14:26:08.333Z,97.30
2019-02-07T14:29:01.756Z,96.90
2019-02-07T14:31:54.226Z,97.10
2019-02-07T14:34:36.942Z,97.20
2019-02-07T14:37:20.548Z,97.80
2019-02-07T14:40:25.249Z,97.00
2019-02-07T14:43:11.773Z,97.40
2019-02-07T14:45:51.319Z,97.50
2019-02-07T14:48:27.054Z,97.90
2019-02-07T14:51:01.019Z,98.10
2019-02-07T14:53:34.670Z,98.60
2019-02-07T14:56:11.695Z,98.30
2019-02-07T14:58:49.982Z,98.20
2019-02-07T15:01:25.111Z,97.50
2019-02-07T15:03:58.636Z,97.30
2019-02-07T15:06:32.610Z,98.00
2019-02-07T15:09:15.248Z,96.90
2019-02-07T15:11:49.077Z,96.80
2019-02-07T15:14:22.965Z,96.40
2019-02-07T15:16:56.982Z,96.80
2019-02-07T15:19:30.865Z,95.40
2019-02-07T15:22:04.617Z,95.70
2019-02-07T15:24:39.773Z,95.50
2019-02-07T15:27:13.093Z,95.40
2019-02-07T15:29:46.737Z,95.80
2019-02-07T15:32:20.254Z,96.10
2019-02-07T15:34:54.062Z,96.10
2019-02-07T15:37:27.836Z,96.20
2019-02-07T15:40:01.869Z,96.60
2019-02-07T15:42:35.790Z,97.10
2019-02-07T15:45:12.291Z,97.20
2019-02-07T15:47:46.158Z,97.70
2019-02-07T15:50:23.743Z,97.90
2019-02-07T15:53:00.514Z,98.30
2019-02-07T15:55:35.393Z,98.50
2019-02-07T15:58:09.739Z,98.60
2019-02-07T16:00:56.118Z,98.80
2019-02-07T16:03:42.169Z,99.10
2019-02-07T16:06:16.295Z,99.40
2019-02-07T16:08:51.746Z,99.10
2019-02-07T16:11:27.082Z,98.90
2019-02-07T16:14:00.594Z,99.10
2019-02-07T16:16:34.748Z,99.40
2019-02-07T16:19:08.503Z,99.70
2019-02-07T16:21:42.203Z,98.80
2019-02-07T16:24:16.181Z,99.00
2019-02-07T16:26:49.678Z,99.00
2019-02-07T16:29:42.950Z,99.30
2019-02-07T16:32:16.797Z,99.60
2019-02-07T16:34:50.310Z,99.90
2019-02-07T16:37:24.287Z,99.90
2019-02-07T16:39:57.879Z,99.90
2019-02-07T16:42:31.133Z,99.90
2019-02-07T16:45:05.888Z,99.90
2019-02-07T16:47:39.655Z,99.90
2019-02-07T16:50:16.124Z,99.90
2019-02-07T16:52:49.587Z,99.90
2019-02-07T16:55:23.290Z,99.90
2019-02-07T16:57:57.075Z,99.90
2019-02-07T17:00:31.194Z,99.90
2019-02-07T17:03:05.364Z,99.90
2019-02-07T17:05:38.854Z,99.90
2019-02-07T17:08:12.408Z,99.90
2019-02-07T17:10:45.432Z,99.90
2019-02-07T17:13:18.876Z,99.90
2019-02-07T17:15:52.611Z,99.90
2019-02-07T17:18:26.071Z,99.90
2019-02-07T17:21:11.244Z,99.90
2019-02-07T17:23:34.989Z,99.90
2019-02-07T17:26:08.484Z,99.90
2019-02-07T17:28:41.800Z,99.90
2019-02-07T17:31:15.162Z,99.90
2019-02-07T17:33:48.670Z,99.90
2019-02-07T17:36:22.627Z,99.90
2019-02-07T17:38:56.356Z,99.90
2019-02-07T17:41:29.544Z,99.90
2019-02-07T17:44:05.661Z,99.90
2019-02-07T17:46:39.154Z,99.90
2019-02-07T17:49:12.370Z,99.90
2019-02-07T17:51:45.388Z,99.90
2019-02-07T17:54:19.250Z,99.90
2019-02-07T17:56:52.579Z,99.90
2019-02-07T17:59:25.423Z,99.90
2019-02-07T18:01:58.858Z,99.90
2019-02-07T18:04:32.570Z,99.90
2019-02-07T18:07:06.401Z,99.90
2019-02-07T18:09:39.810Z,99.90
2019-02-07T18:12:15.449Z,99.90
2019-02-07T18:14:49.027Z,99.90
2019-02-07T18:17:22.580Z,99.90
2019-02-07T18:19:56.385Z,99.90
2019-02-07T18:22:29.677Z,99.90
2019-02-07T18:25:02.860Z,99.90
2019-02-07T18:27:36.201Z,99.90
2019-02-07T18:30:14.196Z,99.90
2019-02-07T18:32:48.490Z,99.90
2019-02-07T18:35:22.436Z,99.90
2019-02-07T18:37:56.009Z,99.90
2019-02-07T18:40:30.030Z,99.90
2019-02-07T18:43:03.523Z,99.90
2019-02-07T18:45:37.190Z,99.90
2019-02-07T18:48:10.803Z,99.90
2019-02-07T18:50:43.860Z,99.90
2019-02-07T18:53:16.882Z,99.90
2019-02-07T18:55:50.491Z,99.90
2019-02-07T18:58:25.141Z,99.90
2019-02-07T19:00:58.242Z,99.90
2019-02-07T19:03:31.424Z,99.90
2019-02-07T19:06:04.963Z,99.90
2019-02-07T19:08:38.684Z,99.90
2019-02-07T19:11:11.908Z,99.90
2019-02-07T19:13:44.957Z,99.90
2019-02-07T19:16:22.195Z,99.90
2019-02-07T19:18:55.515Z,99.90
2019-02-07T19:21:28.439Z,99.90
2019-02-07T19:24:03.384Z,99.90
2019-02-07T19:26:36.529Z,99.90
2019-02-07T19:29:09.714Z,99.90
2019-02-07T19:31:43.223Z,99.90
2019-02-07T19:34:16.223Z,99.90
2019-02-07T19:36:50.623Z,99.90
2019-02-07T19:39:23.901Z,99.90
2019-02-07T19:41:58.606Z,99.90
2019-02-07T19:44:35.319Z,99.90
2019-02-07T19:47:08.585Z,99.90
2019-02-07T19:49:42.096Z,99.90
2019-02-07T19:52:16.833Z,99.90
2019-02-07T19:54:50.087Z,99.90
2019-02-07T19:57:24.984Z,99.90
2019-02-07T19:59:58.617Z,99.90
2019-02-07T20:02:32.050Z,99.90
2019-02-07T20:05:06.291Z,99.90
2019-02-07T20:07:39.651Z,99.90
2019-02-07T20:10:17.911Z,99.90
2019-02-07T20:12:51.484Z,99.90
2019-02-07T20:15:29.416Z,99.90
2019-02-07T20:18:02.642Z,99.90
2019-02-07T20:20:36.107Z,99.90
2019-02-07T20:23:09.378Z,99.90
2019-02-07T20:25:42.935Z,99.90
2019-02-07T20:28:16.253Z,99.90
2019-02-07T20:33:23.208Z,99.90
2019-02-07T20:35:56.621Z,99.90
2019-02-07T20:38:30.207Z,99.90
2019-02-07T20:41:03.287Z,99.90
2019-02-07T20:43:36.864Z,99.90
2019-02-07T20:46:10.331Z,99.90
2019-02-07T20:48:43.563Z,99.90
2019-02-07T20:51:16.976Z,99.90
2019-02-07T20:53:50.554Z,99.90
2019-02-07T20:56:24.170Z,99.90
2019-02-07T20:59:00.521Z,99.90
2019-02-07T21:01:33.862Z,99.90
2019-02-07T21:04:07.784Z,99.90
2019-02-07T21:06:41.431Z,99.60
2019-02-07T21:09:15.194Z,99.80
2019-02-07T21:11:49.007Z,99.90
2019-02-07T21:14:22.861Z,99.90
2019-02-07T21:16:56.027Z,99.90
2019-02-07T21:19:29.519Z,99.90
2019-02-07T21:22:03.008Z,99.90
2019-02-07T21:24:36.343Z,99.90
2019-02-07T21:27:09.402Z,99.90
2019-02-07T21:29:42.629Z,99.90
2019-02-07T21:32:15.733Z,99.90
2019-02-07T21:34:48.750Z,99.90
2019-02-07T21:37:22.455Z,99.90
2019-02-07T21:39:55.844Z,99.90
2019-02-07T21:42:29.158Z,99.90
2019-02-07T21:45:02.283Z,99.90
2019-02-07T21:47:35.828Z,99.90
2019-02-07T21:50:12.595Z,99.90
2019-02-07T21:52:45.961Z,99.90
2019-02-07T21:55:21.325Z,99.90
2019-02-07T21:57:54.290Z,99.90
2019-02-07T22:00:34.612Z,99.90
2019-02-07T22:03:10.026Z,99.90
2019-02-07T22:05:43.481Z,99.90
2019-02-07T22:08:16.473Z,99.90
2019-02-07T22:10:49.825Z,99.90
2019-02-07T22:13:23.086Z,99.90
2019-02-07T22:15:56.204Z,99.90
2019-02-07T22:18:29.232Z,99.90
2019-02-07T22:21:02.396Z,99.90
2019-02-07T22:23:35.955Z,99.90
2019-02-07T22:26:09.352Z,99.90
2019-02-07T22:28:43.937Z,99.90
2019-02-07T22:31:17.120Z,99.90
2019-02-07T22:36:25.195Z,99.90
2019-02-07T22:38:58.718Z,99.90
2019-02-07T22:41:31.780Z,99.90
2019-02-07T22:44:04.737Z,99.90
2019-02-07T22:46:38.174Z,99.90
2019-02-07T22:49:11.183Z,99.90
2019-02-07T22:51:44.219Z,99.90
2019-02-07T22:54:17.394Z,99.90
2019-02-07T22:56:50.493Z,99.90
2019-02-07T22:59:23.685Z,99.90
2019-02-07T23:01:58.401Z,99.90
2019-02-07T23:04:32.079Z,99.90
2019-02-07T23:07:05.450Z,99.90
2019-02-07T23:09:38.916Z,99.90
2019-02-07T23:12:12.296Z,99.90
2019-02-07T23:14:45.672Z,99.90
2019-02-07T23:17:18.749Z,99.90
2019-02-07T23:19:51.842Z,99.90
2019-02-07T23:22:24.962Z,99.90
2019-02-07T23:24:58.137Z,99.90
2019-02-07T23:27:31.307Z,99.90
2019-02-07T23:30:04.310Z,99.90
2019-02-07T23:32:37.813Z,99.90
2019-02-07T23:35:11.262Z,99.90
2019-02-07T23:37:44.022Z,99.90
2019-02-07T23:40:17.523Z,99.90
2019-02-07T23:42:51.039Z,99.90
2019-02-07T23:45:25.246Z,99.90
2019-02-07T23:47:58.234Z,99.90
2019-02-07T23:50:31.334Z,99.90
2019-02-07T23:53:04.252Z,99.90
2019-02-07T23:55:37.237Z,99.90
2019-02-07T23:58:10.306Z,99.90
